createdAt,value
2018-08-23T03:34:53.078Z,4.00
2018-08-23T03:35:52.987Z,4.00
2018-08-23T03:37:46.323Z,4.00
2018-08-23T03:38:46.201Z,8.00
2018-08-23T03:39:46.136Z,8.00
2018-08-23T03:40:46.084Z,12.00
2018-08-23T03:41:46.024Z,12.00
2018-08-23T03:42:45.961Z,16.00
2018-08-23T03:43:45.900Z,20.00
2018-08-23T03:44:45.833Z,20.00
2018-08-23T03:45:45.774Z,24.00
2018-08-23T03:46:45.722Z,28.00
2018-08-23T03:47:45.652Z,36.00
2018-08-23T03:48:45.596Z,40.00
2018-08-23T03:49:45.535Z,48.00
2018-08-23T03:50:45.476Z,52.00
2018-08-23T03:51:45.415Z,60.00
2018-08-23T03:52:45.348Z,68.00
2018-08-23T03:53:45.313Z,80.00
2018-08-23T03:54:45.247Z,92.00
2018-08-23T03:55:45.174Z,96.00
2018-08-23T03:56:45.109Z,112.00
2018-08-23T03:57:45.044Z,124.00
2018-08-23T03:58:44.987Z,136.00
2018-08-23T03:59:44.926Z,156.00
2018-08-23T04:00:44.872Z,172.00
2018-08-23T04:01:44.812Z,196.00
2018-08-23T04:02:44.750Z,216.00
2018-08-23T04:03:44.692Z,236.00
2018-08-23T04:04:44.624Z,256.00
2018-08-23T04:05:44.575Z,280.00
2018-08-23T04:06:44.503Z,304.00
2018-08-23T04:07:44.446Z,332.00
2018-08-23T04:08:44.395Z,356.00
2018-08-23T04:09:44.343Z,376.00
2018-08-23T04:10:44.261Z,396.00
2018-08-23T04:11:44.202Z,420.00
2018-08-23T04:12:44.147Z,448.00
2018-08-23T04:13:44.087Z,480.00
2018-08-23T04:14:44.029Z,512.00
2018-08-23T04:15:43.975Z,544.00
2018-08-23T04:16:43.900Z,572.00
2018-08-23T04:17:43.850Z,608.00
2018-08-23T04:18:43.781Z,636.00
2018-08-23T04:19:43.730Z,672.00
2018-08-23T04:20:43.685Z,704.00
2018-08-23T04:21:43.613Z,736.00
2018-08-23T04:22:43.582Z,772.00
2018-08-23T04:23:43.487Z,804.00
2018-08-23T04:24:43.424Z,844.00
2018-08-23T04:25:43.382Z,876.00
2018-08-23T04:26:43.305Z,904.00
2018-08-23T04:27:43.245Z,940.00
2018-08-23T04:28:43.178Z,976.00
2018-08-23T04:29:43.120Z,1016.00
2018-08-23T04:30:43.059Z,1056.00
2018-08-23T04:31:43.001Z,1092.00
2018-08-23T04:32:42.946Z,1140.00
2018-08-23T04:33:42.884Z,1188.00
2018-08-23T04:34:42.824Z,1208.00
2018-08-23T04:35:42.764Z,1228.00
2018-08-23T04:36:42.698Z,1260.00
2018-08-23T04:37:42.636Z,1292.00
2018-08-23T04:38:42.581Z,1320.00
2018-08-23T04:39:42.519Z,1356.00
2018-08-23T04:40:42.466Z,1388.00
2018-08-23T04:41:42.423Z,1436.00
2018-08-23T04:42:42.336Z,1472.00
2018-08-23T04:43:42.277Z,1516.00
2018-08-23T04:44:42.223Z,1560.00
2018-08-23T04:45:42.162Z,1608.00
2018-08-23T04:46:42.106Z,1672.00
2018-08-23T04:47:42.046Z,1732.00
2018-08-23T04:48:41.981Z,1804.00
2018-08-23T04:49:41.920Z,1892.00
2018-08-23T04:50:41.858Z,1968.00
2018-08-23T04:51:41.885Z,2028.00
2018-08-23T04:52:41.751Z,2004.00
2018-08-23T04:53:41.686Z,1940.00
2018-08-23T04:54:41.628Z,1936.00
2018-08-23T04:55:41.566Z,1952.00
2018-08-23T04:56:41.502Z,1972.00
2018-08-23T04:57:41.450Z,1972.00
2018-08-23T04:58:41.384Z,2000.00
2018-08-23T04:59:41.327Z,2028.00
2018-08-23T05:00:41.258Z,2084.00
2018-08-23T05:01:41.196Z,2128.00
2018-08-23T05:02:41.137Z,2168.00
2018-08-23T05:03:41.075Z,2200.00
2018-08-23T05:04:41.022Z,2236.00
2018-08-23T05:05:40.966Z,2272.00
2018-08-23T05:06:40.902Z,2312.00
2018-08-23T05:07:40.844Z,2348.00
2018-08-23T05:08:40.773Z,2376.00
2018-08-23T05:09:40.722Z,2420.00
2018-08-23T05:10:40.655Z,2460.00
2018-08-23T05:11:40.596Z,2512.00
2018-08-23T05:12:40.558Z,2544.00
2018-08-23T05:13:40.479Z,2572.00
2018-08-23T05:14:40.414Z,2612.00
2018-08-23T05:15:40.359Z,2668.00
2018-08-23T05:16:40.303Z,2704.00
2018-08-23T05:17:40.243Z,2736.00
2018-08-23T05:18:40.182Z,2756.00
2018-08-23T05:19:40.120Z,2776.00
2018-08-23T05:20:40.055Z,2788.00
2018-08-23T05:21:39.994Z,2800.00
2018-08-23T05:22:39.938Z,2824.00
2018-08-23T05:23:39.876Z,2856.00
2018-08-23T05:24:39.821Z,2768.00
2018-08-23T05:25:39.763Z,2788.00
2018-08-23T05:26:39.710Z,2964.00
2018-08-23T05:27:39.648Z,3020.00
2018-08-23T05:28:39.579Z,2960.00
2018-08-23T05:29:39.549Z,3068.00
2018-08-23T05:30:39.468Z,3016.00
2018-08-23T05:31:39.401Z,3108.00
2018-08-23T05:32:39.334Z,3184.00
2018-08-23T05:33:39.276Z,3196.00
2018-08-23T05:34:39.218Z,3272.00
2018-08-23T05:35:39.159Z,3360.00
2018-08-23T05:36:39.106Z,3404.00
2018-08-23T05:37:39.044Z,3428.00
2018-08-23T05:38:38.985Z,3440.00
2018-08-23T05:39:38.925Z,3460.00
2018-08-23T05:40:38.860Z,3488.00
2018-08-23T05:41:38.799Z,3524.00
2018-08-23T05:42:38.739Z,3576.00
2018-08-23T05:43:38.680Z,3616.00
2018-08-23T05:44:38.629Z,3656.00
2018-08-23T05:45:38.588Z,3688.00
2018-08-23T05:46:38.502Z,3696.00
2018-08-23T05:47:38.498Z,3720.00
2018-08-23T05:48:38.386Z,3748.00
2018-08-23T05:49:38.327Z,3756.00
2018-08-23T05:50:38.269Z,3772.00
2018-08-23T05:51:38.212Z,3784.00
2018-08-23T05:52:38.142Z,3792.00
2018-08-23T05:53:38.082Z,3804.00
2018-08-23T05:54:38.022Z,3816.00
2018-08-23T05:55:37.963Z,3828.00
2018-08-23T05:56:37.913Z,3836.00
2018-08-23T05:57:37.849Z,3712.00
2018-08-23T05:58:37.792Z,3968.00
2018-08-23T05:59:37.730Z,4008.00
2018-08-23T06:00:37.666Z,4040.00
2018-08-23T06:01:37.609Z,4092.00
2018-08-23T06:02:37.610Z,4124.00
2018-08-23T06:03:37.492Z,4148.00
2018-08-23T06:04:37.427Z,4196.00
2018-08-23T06:05:37.367Z,4228.00
2018-08-23T06:06:37.310Z,4216.00
2018-08-23T06:07:37.254Z,4252.00
2018-08-23T06:08:37.197Z,4300.00
2018-08-23T06:09:37.135Z,4344.00
2018-08-23T06:10:37.079Z,4380.00
2018-08-23T06:11:37.019Z,4416.00
2018-08-23T06:12:36.953Z,4468.00
2018-08-23T06:13:36.893Z,4496.00
2018-08-23T06:14:36.834Z,4536.00
2018-08-23T06:15:36.776Z,4580.00
2018-08-23T06:16:36.725Z,4560.00
2018-08-23T06:17:36.666Z,4600.00
2018-08-23T06:18:36.603Z,4600.00
2018-08-23T06:19:36.539Z,4620.00
2018-08-23T06:20:36.483Z,4636.00
2018-08-23T06:21:36.429Z,4640.00
2018-08-23T06:22:36.366Z,4652.00
2018-08-23T06:23:36.310Z,4656.00
2018-08-23T06:24:36.248Z,4684.00
2018-08-23T06:25:36.183Z,4700.00
2018-08-23T06:26:36.125Z,4708.00
2018-08-23T06:27:36.066Z,4724.00
2018-08-23T06:28:36.019Z,4728.00
2018-08-23T06:29:35.954Z,4760.00
2018-08-23T06:30:35.899Z,4788.00
2018-08-23T06:31:35.839Z,4812.00
2018-08-23T06:32:35.773Z,4852.00
2018-08-23T06:33:35.885Z,4860.00
2018-08-23T06:34:35.685Z,4868.00
2018-08-23T06:35:35.620Z,4864.00
2018-08-23T06:36:35.541Z,4892.00
2018-08-23T06:37:35.524Z,4928.00
2018-08-23T06:38:35.447Z,4948.00
2018-08-23T06:39:35.360Z,4996.00
2018-08-23T06:40:35.307Z,5028.00
2018-08-23T06:41:35.250Z,5044.00
2018-08-23T06:42:35.190Z,5056.00
2018-08-23T06:43:35.131Z,5068.00
2018-08-23T06:44:35.174Z,5116.00
2018-08-23T06:45:35.013Z,5160.00
2018-08-23T06:46:34.950Z,5212.00
2018-08-23T06:47:34.896Z,5276.00
2018-08-23T06:48:34.841Z,5292.00
2018-08-23T06:49:34.792Z,5304.00
2018-08-23T06:50:34.721Z,5316.00
2018-08-23T06:51:34.659Z,5320.00
2018-08-23T06:52:34.613Z,5324.00
2018-08-23T06:53:34.548Z,5312.00
2018-08-23T06:54:34.494Z,5348.00
2018-08-23T06:55:34.441Z,5388.00
2018-08-23T06:56:34.385Z,5400.00
2018-08-23T06:57:34.311Z,5416.00
2018-08-23T06:58:34.255Z,5436.00
2018-08-23T06:59:34.194Z,5460.00
2018-08-23T07:00:34.143Z,5496.00
2018-08-23T07:01:34.085Z,5512.00
2018-08-23T07:02:34.027Z,5512.00
2018-08-23T07:03:33.969Z,5556.00
2018-08-23T07:04:33.904Z,5564.00
2018-08-23T07:05:33.902Z,5588.00
2018-08-23T07:06:33.854Z,5568.00
2018-08-23T07:07:33.745Z,5596.00
2018-08-23T07:08:33.675Z,5636.00
2018-08-23T07:09:33.612Z,5652.00
2018-08-23T07:10:33.613Z,5648.00
2018-08-23T07:11:33.498Z,5672.00
2018-08-23T07:12:33.447Z,5692.00
2018-08-23T07:13:33.388Z,5728.00
2018-08-23T07:14:33.334Z,5792.00
2018-08-23T07:15:33.276Z,5868.00
2018-08-23T07:16:33.208Z,5920.00
2018-08-23T07:17:33.221Z,6000.00
2018-08-23T07:18:33.092Z,6084.00
2018-08-23T07:19:33.038Z,6192.00
2018-08-23T07:20:32.984Z,6308.00
2018-08-23T07:21:32.926Z,6384.00
2018-08-23T07:22:32.875Z,6448.00
2018-08-23T07:23:32.815Z,6456.00
2018-08-23T07:24:32.755Z,6416.00
2018-08-23T07:25:32.700Z,6400.00
2018-08-23T07:26:32.644Z,6324.00
2018-08-23T07:27:32.586Z,6268.00
2018-08-23T07:28:32.517Z,6196.00
2018-08-23T07:29:32.461Z,6208.00
2018-08-23T07:30:32.405Z,6240.00
2018-08-23T07:31:32.349Z,6292.00
2018-08-23T07:32:32.296Z,6304.00
2018-08-23T07:33:32.258Z,6364.00
2018-08-23T07:34:32.181Z,6420.00
2018-08-23T07:35:32.134Z,6436.00
2018-08-23T07:36:32.059Z,6352.00
2018-08-23T07:37:32.005Z,6288.00
2018-08-23T07:38:31.955Z,6188.00
2018-08-23T07:39:31.900Z,6240.00
2018-08-23T07:40:31.835Z,6244.00
2018-08-23T07:41:31.776Z,6224.00
2018-08-23T07:42:31.717Z,6220.00
2018-08-23T07:43:31.667Z,6168.00
2018-08-23T07:44:31.613Z,6144.00
2018-08-23T07:45:31.553Z,6140.00
2018-08-23T07:46:31.498Z,6152.00
2018-08-23T07:47:31.442Z,6136.00
2018-08-23T07:48:31.435Z,6136.00
2018-08-23T07:49:31.321Z,6148.00
2018-08-23T07:50:31.262Z,6140.00
2018-08-23T07:51:31.219Z,6124.00
2018-08-23T07:52:31.206Z,6144.00
2018-08-23T07:53:31.308Z,6152.00
2018-08-23T07:54:31.040Z,6172.00
2018-08-23T07:55:30.981Z,6184.00
2018-08-23T07:56:30.962Z,6184.00
2018-08-23T07:57:30.903Z,6192.00
2018-08-23T07:58:30.817Z,6200.00
2018-08-23T07:59:30.757Z,6208.00
2018-08-23T08:00:30.699Z,6216.00
2018-08-23T08:01:30.640Z,6240.00
2018-08-23T08:02:30.582Z,6240.00
2018-08-23T08:03:30.529Z,6248.00
2018-08-23T08:04:30.483Z,6264.00
2018-08-23T08:05:30.428Z,6260.00
2018-08-23T08:06:30.370Z,6264.00
2018-08-23T08:07:30.313Z,6284.00
2018-08-23T08:08:30.247Z,6300.00
2018-08-23T08:09:30.198Z,6328.00
2018-08-23T08:10:30.140Z,6372.00
2018-08-23T08:11:30.083Z,6388.00
2018-08-23T08:12:30.019Z,6400.00
2018-08-23T08:13:29.977Z,6408.00
2018-08-23T08:14:29.940Z,6392.00
2018-08-23T08:15:29.851Z,6412.00
2018-08-23T08:16:29.800Z,6424.00
2018-08-23T08:17:29.748Z,6436.00
2018-08-23T08:18:29.688Z,6448.00
2018-08-23T08:19:29.631Z,6472.00
2018-08-23T08:20:29.570Z,6500.00
2018-08-23T08:21:29.548Z,6512.00
2018-08-23T08:22:29.461Z,6528.00
2018-08-23T08:23:29.403Z,6528.00
2018-08-23T08:24:29.356Z,6544.00
2018-08-23T08:25:29.306Z,6564.00
2018-08-23T08:26:29.232Z,6592.00
2018-08-23T08:27:29.174Z,6620.00
2018-08-23T08:28:29.128Z,6644.00
2018-08-23T08:29:29.072Z,6660.00
2018-08-23T08:30:29.020Z,6668.00
2018-08-23T08:31:28.973Z,6676.00
2018-08-23T08:32:28.898Z,6680.00
2018-08-23T08:33:28.842Z,6704.00
2018-08-23T08:34:28.785Z,6740.00
2018-08-23T08:35:28.731Z,6756.00
2018-08-23T08:36:28.685Z,6780.00
2018-08-23T08:37:28.628Z,6792.00
2018-08-23T08:38:28.568Z,6804.00
2018-08-23T08:39:28.514Z,6836.00
2018-08-23T08:40:28.448Z,6868.00
2018-08-23T08:41:28.391Z,6900.00
2018-08-23T08:42:28.344Z,6928.00
2018-08-23T08:43:28.291Z,6968.00
2018-08-23T08:44:28.227Z,6992.00
2018-08-23T08:45:28.170Z,7028.00
2018-08-23T08:46:28.115Z,7052.00
2018-08-23T08:47:28.064Z,7080.00
2018-08-23T08:48:28.036Z,7088.00
2018-08-23T08:49:27.961Z,7128.00
2018-08-23T08:50:27.926Z,7148.00
2018-08-23T08:51:27.844Z,7168.00
2018-08-23T08:52:27.785Z,7188.00
2018-08-23T08:53:27.737Z,7232.00
2018-08-23T08:54:27.675Z,7256.00
2018-08-23T08:55:27.617Z,7312.00
2018-08-23T08:56:27.571Z,7368.00
2018-08-23T08:57:27.512Z,7424.00
2018-08-23T08:58:27.449Z,7440.00
2018-08-23T08:59:27.395Z,7404.00
2018-08-23T09:00:27.352Z,7444.00
2018-08-23T09:01:27.291Z,7488.00
2018-08-23T09:02:27.239Z,7592.00
2018-08-23T09:03:27.184Z,7768.00
2018-08-23T09:04:27.120Z,7980.00
2018-08-23T09:05:27.066Z,8228.00
2018-08-23T09:06:27.010Z,8348.00
2018-08-23T09:07:26.953Z,8164.00
2018-08-23T09:08:26.905Z,8060.00
2018-08-23T09:09:26.850Z,8348.00
2018-08-23T09:10:26.794Z,8320.00
2018-08-23T09:11:26.743Z,8252.00
2018-08-23T09:12:26.678Z,8196.00
2018-08-23T09:13:26.622Z,8076.00
2018-08-23T09:14:26.572Z,8000.00
2018-08-23T09:15:26.520Z,7984.00
2018-08-23T09:16:26.466Z,8072.00
2018-08-23T09:17:26.403Z,8008.00
2018-08-23T09:18:26.346Z,8344.00
2018-08-23T09:19:26.298Z,8484.00
2018-08-23T09:20:26.264Z,8652.00
2018-08-23T09:21:26.197Z,8636.00
2018-08-23T09:22:26.139Z,8832.00
2018-08-23T09:23:26.102Z,8480.00
2018-08-23T09:24:26.019Z,8512.00
2018-08-23T09:25:25.963Z,8544.00
2018-08-23T09:26:25.908Z,8896.00
2018-08-23T09:27:25.854Z,8704.00
2018-08-23T09:28:25.806Z,8460.00
2018-08-23T09:29:25.755Z,8312.00
2018-08-23T09:30:25.690Z,8244.00
2018-08-23T09:31:25.631Z,8232.00
2018-08-23T09:32:25.585Z,8208.00
2018-08-23T09:33:25.530Z,8164.00
2018-08-23T09:34:25.482Z,8116.00
2018-08-23T09:35:25.422Z,8088.00
2018-08-23T09:36:25.359Z,8072.00
2018-08-23T09:37:25.305Z,8056.00
2018-08-23T09:38:25.260Z,8072.00
2018-08-23T09:39:25.197Z,8080.00
2018-08-23T09:40:25.148Z,8112.00
2018-08-23T09:41:25.096Z,8152.00
2018-08-23T09:42:25.040Z,8252.00
2018-08-23T09:43:24.985Z,8316.00
2018-08-23T09:44:24.940Z,8376.00
2018-08-23T09:45:24.872Z,8436.00
2018-08-23T09:46:24.822Z,8484.00
2018-08-23T09:47:24.779Z,8548.00
2018-08-23T09:48:24.704Z,8628.00
2018-08-23T09:49:24.654Z,8724.00
2018-08-23T09:50:24.594Z,8768.00
2018-08-23T09:51:24.542Z,8852.00
2018-08-23T09:52:24.501Z,8928.00
2018-08-23T09:53:24.442Z,9012.00
2018-08-23T09:54:24.388Z,9104.00
2018-08-23T09:55:24.332Z,9180.00
2018-08-23T09:56:24.268Z,9220.00
2018-08-23T09:57:24.219Z,9256.00
2018-08-23T09:58:24.203Z,9304.00
2018-08-23T09:59:24.117Z,9344.00
2018-08-23T10:00:24.057Z,9356.00
2018-08-23T10:01:24.003Z,9364.00
2018-08-23T10:02:23.943Z,9304.00
2018-08-23T10:03:23.890Z,9284.00
2018-08-23T10:04:23.869Z,9272.00
2018-08-23T10:05:23.791Z,9244.00
2018-08-23T10:06:23.727Z,9256.00
2018-08-23T10:07:23.674Z,9304.00
2018-08-23T10:08:23.619Z,9340.00
2018-08-23T10:09:23.559Z,9372.00
2018-08-23T10:10:23.514Z,9420.00
2018-08-23T10:11:23.512Z,9464.00
2018-08-23T10:12:23.402Z,9500.00
2018-08-23T10:13:23.358Z,9528.00
2018-08-23T10:14:23.304Z,9540.00
2018-08-23T10:15:23.259Z,9584.00
2018-08-23T10:16:23.187Z,9672.00
2018-08-23T10:17:23.132Z,9736.00
2018-08-23T10:18:23.079Z,9816.00
2018-08-23T10:19:23.029Z,9892.00
2018-08-23T10:20:22.968Z,9936.00
2018-08-23T10:21:22.918Z,9924.00
2018-08-23T10:22:22.854Z,9988.00
2018-08-23T10:23:22.801Z,10140.00
2018-08-23T10:24:22.754Z,10176.00
2018-08-23T10:25:22.707Z,10228.00
2018-08-23T10:26:22.674Z,10308.00
2018-08-23T10:27:22.590Z,10396.00
2018-08-23T10:28:22.528Z,10496.00
2018-08-23T10:29:22.480Z,10600.00
2018-08-23T10:30:22.423Z,10656.00
2018-08-23T10:31:22.373Z,10704.00
2018-08-23T10:32:22.428Z,10768.00
2018-08-23T10:33:22.284Z,10836.00
2018-08-23T10:34:22.211Z,10892.00
2018-08-23T10:35:22.152Z,10924.00
2018-08-23T10:36:22.111Z,10936.00
2018-08-23T10:37:22.050Z,10952.00
2018-08-23T10:38:22.076Z,11004.00
2018-08-23T10:39:21.945Z,11036.00
2018-08-23T10:40:21.882Z,11176.00
2018-08-23T10:41:21.826Z,11312.00
2018-08-23T10:42:21.773Z,11348.00
2018-08-23T10:43:21.725Z,11148.00
2018-08-23T10:44:21.764Z,10932.00
2018-08-23T10:45:21.620Z,10808.00
2018-08-23T10:46:21.565Z,10732.00
2018-08-23T10:47:21.512Z,10760.00
2018-08-23T10:48:21.451Z,10880.00
2018-08-23T10:49:21.395Z,10940.00
2018-08-23T10:50:22.009Z,10964.00
2018-08-23T10:51:21.327Z,11092.00
2018-08-23T10:52:21.236Z,11212.00
2018-08-23T10:53:21.187Z,11416.00
2018-08-23T10:54:21.130Z,11520.00
2018-08-23T10:55:21.076Z,11700.00
2018-08-23T10:56:21.030Z,11944.00
2018-08-23T10:57:20.974Z,12312.00
2018-08-23T10:58:20.922Z,12756.00
2018-08-23T10:59:20.868Z,13320.00
2018-08-23T11:00:20.806Z,13772.00
2018-08-23T11:01:20.751Z,14668.00
2018-08-23T11:02:20.704Z,15108.00
2018-08-23T11:03:20.647Z,16388.00
2018-08-23T11:04:20.598Z,17140.00
2018-08-23T11:05:20.548Z,17128.00
2018-08-23T11:06:20.493Z,13972.00
2018-08-23T11:07:20.438Z,13508.00
2018-08-23T11:08:20.399Z,14400.00
2018-08-23T11:09:20.339Z,16324.00
2018-08-23T11:10:20.284Z,16564.00
2018-08-23T11:11:27.870Z,19392.00
2018-08-23T11:13:13.548Z,19488.00
2018-08-23T11:14:13.462Z,19360.00
2018-08-23T11:16:07.786Z,92544.00
2018-08-23T11:17:07.763Z,79328.00
2018-08-23T11:19:01.031Z,89824.00
2018-08-23T11:20:00.948Z,19968.00
2018-08-23T11:21:55.265Z,13836.00
2018-08-23T11:22:55.186Z,14668.00
2018-08-23T11:23:55.130Z,16448.00
2018-08-23T11:24:55.075Z,18912.00
2018-08-23T11:25:55.014Z,85568.00
2018-08-23T11:26:54.970Z,95136.00
2018-08-23T11:27:54.913Z,97184.00
2018-08-23T11:28:54.870Z,24544.00
2018-08-23T11:29:54.842Z,88544.00
2018-08-23T11:30:54.765Z,90304.00
2018-08-23T11:31:54.722Z,75296.00
2018-08-23T11:32:54.665Z,27232.00
2018-08-23T11:33:54.614Z,49376.00
2018-08-23T11:34:54.560Z,93952.00
2018-08-23T11:35:54.508Z,87264.00
2018-08-23T11:36:54.478Z,92000.00
2018-08-23T11:37:54.443Z,90656.00
2018-08-23T11:38:54.367Z,87808.00
2018-08-23T11:39:54.310Z,58592.00
2018-08-23T11:40:54.263Z,76000.00
2018-08-23T11:41:54.222Z,85120.00
2018-08-23T11:42:54.188Z,94368.00
2018-08-23T11:43:54.120Z,101152.00
2018-08-23T11:44:54.071Z,100416.00
2018-08-23T11:45:54.017Z,86560.00
2018-08-23T11:46:54.428Z,78176.00
2018-08-23T11:47:53.921Z,72224.00
2018-08-23T11:48:53.939Z,81568.00
2018-08-23T11:49:53.846Z,88512.00
2018-08-23T11:50:53.786Z,87200.00
2018-08-23T11:51:53.752Z,86464.00
2018-08-23T11:52:53.698Z,89216.00
2018-08-23T11:53:53.663Z,90976.00
2018-08-23T11:54:53.595Z,88864.00
2018-08-23T11:55:53.577Z,24640.00
2018-08-23T11:56:53.528Z,53664.00
2018-08-23T11:57:53.495Z,90496.00
2018-08-23T11:58:53.421Z,22240.00
2018-08-23T11:59:53.368Z,38592.00
2018-08-23T12:00:53.324Z,68480.00
2018-08-23T12:01:53.283Z,63616.00
2018-08-23T12:02:53.238Z,93728.00
2018-08-23T12:03:53.203Z,59456.00
2018-08-23T12:04:53.147Z,89536.00
2018-08-23T12:05:53.129Z,88448.00
2018-08-23T12:06:53.062Z,87200.00
2018-08-23T12:07:53.013Z,27520.00
2018-08-23T12:08:52.960Z,70784.00
2018-08-23T12:09:52.975Z,75840.00
2018-08-23T12:10:52.874Z,81760.00
2018-08-23T12:11:52.827Z,76640.00
2018-08-23T12:12:52.778Z,78208.00
2018-08-23T12:13:52.741Z,80512.00
2018-08-23T12:14:52.697Z,84224.00
2018-08-23T12:15:52.652Z,28928.00
2018-08-23T12:16:52.633Z,18880.00
2018-08-23T12:17:52.553Z,20576.00
2018-08-23T12:18:52.512Z,18992.00
2018-08-23T12:19:52.464Z,17704.00
2018-08-23T12:20:52.423Z,17112.00
2018-08-23T12:21:52.381Z,26912.00
2018-08-23T12:22:52.337Z,16056.00
2018-08-23T12:23:52.289Z,15828.00
2018-08-23T12:24:52.243Z,16200.00
2018-08-23T12:25:52.290Z,19328.00
2018-08-23T12:26:52.141Z,32672.00
2018-08-23T12:27:52.104Z,23488.00
2018-08-23T12:28:52.056Z,23520.00
2018-08-23T12:29:52.001Z,21696.00
2018-08-23T12:30:51.948Z,20192.00
2018-08-23T12:31:51.926Z,37760.00
2018-08-23T12:32:51.877Z,81568.00
2018-08-23T12:33:51.811Z,83296.00
2018-08-23T12:34:51.810Z,18984.00
2018-08-23T12:35:51.716Z,18768.00
2018-08-23T12:36:51.671Z,21632.00
2018-08-23T12:37:51.634Z,79968.00
2018-08-23T12:38:51.564Z,84544.00
2018-08-23T12:39:51.518Z,88896.00
2018-08-23T12:40:51.489Z,86368.00
2018-08-23T12:41:51.427Z,92640.00
2018-08-23T12:42:51.380Z,92384.00
2018-08-23T12:43:51.382Z,61504.00
2018-08-23T12:44:51.279Z,87264.00
2018-08-23T12:45:51.245Z,83744.00
2018-08-23T12:46:51.193Z,86880.00
2018-08-23T12:47:51.146Z,88480.00
2018-08-23T12:48:51.100Z,86752.00
2018-08-23T12:49:51.107Z,87392.00
2018-08-23T12:50:51.008Z,93504.00
2018-08-23T12:51:50.957Z,14408.00
2018-08-23T12:52:50.913Z,13416.00
2018-08-23T12:53:50.881Z,14104.00
2018-08-23T12:54:50.830Z,70400.00
2018-08-23T12:55:50.788Z,86592.00
2018-08-23T12:56:50.742Z,91168.00
2018-08-23T12:57:50.693Z,22720.00
2018-08-23T12:58:50.655Z,82624.00
2018-08-23T12:59:50.657Z,84992.00
2018-08-23T13:00:50.562Z,24000.00
2018-08-23T13:01:50.568Z,19776.00
2018-08-23T13:02:50.540Z,87648.00
2018-08-23T13:03:50.461Z,47936.00
2018-08-23T13:04:50.381Z,70976.00
2018-08-23T13:05:50.336Z,38336.00
2018-08-23T13:06:50.296Z,57920.00
2018-08-23T13:07:50.246Z,18880.00
2018-08-23T13:08:50.209Z,23296.00
2018-08-23T13:09:50.152Z,76096.00
2018-08-23T13:10:50.116Z,90016.00
2018-08-23T13:11:50.061Z,95296.00
2018-08-23T13:12:50.012Z,21664.00
2018-08-23T13:13:49.980Z,77792.00
2018-08-23T13:14:49.939Z,71040.00
2018-08-23T13:15:49.882Z,60960.00
2018-08-23T13:16:49.833Z,22528.00
2018-08-23T13:17:49.793Z,81888.00
2018-08-23T13:18:49.747Z,72896.00
2018-08-23T13:19:49.712Z,77216.00
2018-08-23T13:20:49.657Z,46720.00
2018-08-23T13:21:49.638Z,18012.00
2018-08-23T13:22:49.562Z,17808.00
2018-08-23T13:23:49.518Z,18624.00
2018-08-23T13:24:49.472Z,40256.00
2018-08-23T13:25:49.435Z,81920.00
2018-08-23T13:26:49.387Z,89536.00
2018-08-23T13:27:49.343Z,86848.00
2018-08-23T13:28:49.298Z,76704.00
2018-08-23T13:29:49.263Z,82816.00
2018-08-23T13:30:49.227Z,85088.00
2018-08-23T13:31:49.165Z,68032.00
2018-08-23T13:32:49.123Z,74656.00
2018-08-23T13:33:49.069Z,79680.00
2018-08-23T13:34:49.024Z,85952.00
2018-08-23T13:35:48.981Z,88704.00
2018-08-23T13:36:49.079Z,88864.00
2018-08-23T13:37:48.901Z,84160.00
2018-08-23T13:38:48.898Z,78912.00
2018-08-23T13:39:48.818Z,76000.00
2018-08-23T13:40:48.791Z,69344.00
2018-08-23T13:41:48.758Z,73376.00
2018-08-23T13:42:48.681Z,71712.00
2018-08-23T13:43:48.639Z,69536.00
2018-08-23T13:44:48.594Z,74528.00
2018-08-23T13:45:48.564Z,77088.00
2018-08-23T13:46:48.527Z,76992.00
2018-08-23T13:47:48.478Z,73600.00
2018-08-23T13:48:48.448Z,25024.00
2018-08-23T13:49:48.387Z,35680.00
2018-08-23T13:50:48.350Z,13016.00
2018-08-23T13:51:48.306Z,30752.00
2018-08-23T13:52:48.295Z,27744.00
2018-08-23T13:53:48.228Z,20928.00
2018-08-23T13:54:48.180Z,85920.00
2018-08-23T13:55:48.125Z,77760.00
2018-08-23T13:56:48.080Z,70496.00
2018-08-23T13:57:48.049Z,71328.00
2018-08-23T13:58:48.024Z,78048.00
2018-08-23T13:59:47.954Z,82656.00
2018-08-23T14:00:47.932Z,74912.00
2018-08-23T14:01:47.872Z,77984.00
2018-08-23T14:02:47.828Z,81920.00
2018-08-23T14:03:47.782Z,82784.00
2018-08-23T14:04:47.734Z,79936.00
2018-08-23T14:05:47.685Z,76064.00
2018-08-23T14:06:47.646Z,79584.00
2018-08-23T14:07:47.635Z,83200.00
2018-08-23T14:08:47.561Z,77248.00
2018-08-23T14:09:47.517Z,74240.00
2018-08-23T14:10:47.480Z,72352.00
2018-08-23T14:11:47.439Z,70720.00
2018-08-23T14:12:47.446Z,72992.00
2018-08-23T14:13:47.342Z,76928.00
2018-08-23T14:14:47.312Z,74720.00
2018-08-23T14:15:47.257Z,70752.00
2018-08-23T14:16:47.212Z,70272.00
2018-08-23T14:17:47.179Z,18656.00
2018-08-23T14:18:47.137Z,59840.00
2018-08-23T14:19:47.090Z,68320.00
2018-08-23T14:20:47.047Z,74976.00
2018-08-23T14:21:47.031Z,82336.00
2018-08-23T14:22:46.972Z,82336.00
2018-08-23T14:23:46.931Z,26816.00
2018-08-23T14:24:46.884Z,77024.00
2018-08-23T14:25:46.831Z,73728.00
2018-08-23T14:26:46.788Z,62976.00
2018-08-23T14:27:46.745Z,12420.00
2018-08-23T14:28:46.718Z,12980.00
2018-08-23T14:29:46.667Z,60640.00
2018-08-23T14:30:46.623Z,14376.00
2018-08-23T14:31:46.583Z,12508.00
2018-08-23T14:32:46.546Z,12056.00
2018-08-23T14:33:46.489Z,12472.00
2018-08-23T14:34:46.457Z,18080.00
2018-08-23T14:35:46.407Z,46688.00
2018-08-23T14:36:46.361Z,59104.00
2018-08-23T14:37:46.317Z,57952.00
2018-08-23T14:38:46.297Z,66240.00
2018-08-23T14:39:46.222Z,63744.00
2018-08-23T14:40:46.174Z,63008.00
2018-08-23T14:41:46.143Z,15008.00
2018-08-23T14:42:46.092Z,43264.00
2018-08-23T14:43:46.049Z,63584.00
2018-08-23T14:44:46.005Z,62080.00
2018-08-23T14:45:45.956Z,58240.00
2018-08-23T14:46:45.921Z,55520.00
2018-08-23T14:47:45.862Z,55008.00
2018-08-23T14:48:45.817Z,54944.00
2018-08-23T14:49:45.784Z,52864.00
2018-08-23T14:50:45.740Z,54336.00
2018-08-23T14:51:45.686Z,57088.00
2018-08-23T14:52:45.640Z,53472.00
2018-08-23T14:53:45.609Z,51072.00
2018-08-23T14:54:45.561Z,60800.00
2018-08-23T14:55:45.515Z,60384.00
2018-08-23T14:56:45.473Z,51296.00
2018-08-23T14:57:45.426Z,58816.00
2018-08-23T14:58:45.377Z,62272.00
2018-08-23T14:59:45.339Z,41344.00
2018-08-23T15:00:45.292Z,24544.00
2018-08-23T15:01:45.252Z,16160.00
2018-08-23T15:02:45.209Z,14148.00
2018-08-23T15:03:45.165Z,13476.00
2018-08-23T15:04:45.119Z,12812.00
2018-08-23T15:05:45.073Z,12332.00
2018-08-23T15:06:45.029Z,11980.00
2018-08-23T15:07:45.080Z,11676.00
2018-08-23T15:08:44.969Z,11400.00
2018-08-23T15:09:44.907Z,11116.00
2018-08-23T15:10:44.849Z,10852.00
2018-08-23T15:11:44.804Z,10632.00
2018-08-23T15:12:44.759Z,10444.00
2018-08-23T15:13:44.715Z,10320.00
2018-08-23T15:14:44.669Z,10388.00
2018-08-23T15:15:44.623Z,10188.00
2018-08-23T15:16:44.577Z,10136.00
2018-08-23T15:17:44.528Z,10116.00
2018-08-23T15:18:44.475Z,10080.00
2018-08-23T15:19:44.428Z,10008.00
2018-08-23T15:20:44.423Z,9928.00
2018-08-23T15:21:44.338Z,9880.00
2018-08-23T15:22:44.293Z,9812.00
2018-08-23T15:23:44.238Z,9716.00
2018-08-23T15:24:44.186Z,9628.00
2018-08-23T15:25:44.148Z,9572.00
2018-08-23T15:26:44.292Z,9536.00
2018-08-23T15:27:44.066Z,9480.00
2018-08-23T15:28:44.037Z,9428.00
2018-08-23T15:29:43.943Z,9380.00
2018-08-23T15:30:43.895Z,9312.00
2018-08-23T15:31:43.850Z,9240.00
2018-08-23T15:32:43.794Z,9180.00
2018-08-23T15:33:43.751Z,9124.00
2018-08-23T15:34:43.707Z,9048.00
2018-08-23T15:35:43.656Z,8960.00
2018-08-23T15:36:43.604Z,8856.00
2018-08-23T15:37:43.549Z,8760.00